createdAt,value
2022-08-14T00:00:24.305Z,27.24
2022-08-14T00:01:15.951Z,27.15
2022-08-14T00:02:14.238Z,27.15
2022-08-14T00:03:05.122Z,27.15
2022-08-14T00:03:57.022Z,27.13
2022-08-14T00:04:47.872Z,27.14
2022-08-14T00:05:38.602Z,27.05
2022-08-14T00:06:35.178Z,26.98
2022-08-14T00:07:28.395Z,26.99
2022-08-14T00:08:44.609Z,27.00
2022-08-14T00:09:29.823Z,26.98
2022-08-14T00:10:52.121Z,26.99
2022-08-14T00:11:34.417Z,26.99
2022-08-14T00:12:33.828Z,27.09
2022-08-14T00:13:30.999Z,27.10
2022-08-14T00:14:21.977Z,27.10
2022-08-14T00:15:21.941Z,27.11
2022-08-14T00:16:41.764Z,27.19
2022-08-14T00:17:26.954Z,27.27
2022-08-14T00:18:30.540Z,27.46
2022-08-14T00:19:32.475Z,27.54
2022-08-14T00:20:30.957Z,27.54
2022-08-14T00:21:28.242Z,27.58
2022-08-14T00:22:56.600Z,27.53
2022-08-14T00:23:33.000Z,27.62
2022-08-14T00:24:28.958Z,27.56
2022-08-14T00:25:21.886Z,27.55
2022-08-14T00:26:21.632Z,27.59
2022-08-14T00:27:16.666Z,27.57
2022-08-14T00:28:09.264Z,27.58
2022-08-14T00:28:59.968Z,27.53
2022-08-14T00:29:51.896Z,27.53
2022-08-14T00:30:42.923Z,27.53
2022-08-14T00:31:44.172Z,27.52
2022-08-14T00:33:01.632Z,27.50
2022-08-14T00:33:52.101Z,27.55
2022-08-14T00:34:46.859Z,27.54
2022-08-14T00:36:34.285Z,27.42
2022-08-14T00:36:48.614Z,27.48
2022-08-14T00:37:44.605Z,27.49
2022-08-14T00:38:35.253Z,27.49
2022-08-14T00:39:26.011Z,27.34
2022-08-14T00:40:27.352Z,27.28
2022-08-14T00:41:24.631Z,27.08
2022-08-14T00:42:21.422Z,27.17
2022-08-14T00:43:32.276Z,27.27
2022-08-14T00:44:31.888Z,27.35
2022-08-14T00:45:23.980Z,27.43
2022-08-14T00:46:32.839Z,27.41
2022-08-14T00:47:25.707Z,27.43
2022-08-14T00:48:34.458Z,27.32
2022-08-14T00:49:30.111Z,27.34
2022-08-14T00:50:22.003Z,27.38
2022-08-14T00:51:12.246Z,27.40
2022-08-14T00:52:03.418Z,27.39
2022-08-14T00:52:55.995Z,27.44
2022-08-14T00:53:50.324Z,27.44
2022-08-14T00:54:44.046Z,27.40
2022-08-14T00:55:36.512Z,27.38
2022-08-14T00:56:31.276Z,27.42
2022-08-14T00:57:22.623Z,27.34
2022-08-14T00:58:32.957Z,27.35
2022-08-14T00:59:28.401Z,27.33
2022-08-14T01:00:34.081Z,27.34
2022-08-14T01:01:29.663Z,27.31
2022-08-14T01:02:24.978Z,27.34
2022-08-14T01:03:19.565Z,27.28
2022-08-14T01:04:50.963Z,27.21
2022-08-14T01:05:25.815Z,27.22
2022-08-14T01:06:34.389Z,27.26
2022-08-14T01:07:27.221Z,27.27
2022-08-14T01:08:51.317Z,27.33
2022-08-14T01:09:34.687Z,27.33
2022-08-14T01:10:45.995Z,27.30
2022-08-14T01:12:03.291Z,27.30
2022-08-14T01:13:08.448Z,27.37
2022-08-14T01:14:35.987Z,27.37
2022-08-14T01:15:31.742Z,27.37
2022-08-14T01:16:37.189Z,27.37
2022-08-14T01:17:49.744Z,27.37
2022-08-14T01:19:02.105Z,27.39
2022-08-14T01:20:27.859Z,27.39
2022-08-14T01:21:38.792Z,27.35
2022-08-14T01:22:38.009Z,27.28
2022-08-14T01:23:46.702Z,27.19
2022-08-14T01:24:38.222Z,27.22
2022-08-14T01:25:28.706Z,27.23
2022-08-14T01:26:35.799Z,27.26
2022-08-14T01:27:30.529Z,27.21
2022-08-14T01:28:46.063Z,27.25
2022-08-14T01:29:59.259Z,27.25
2022-08-14T01:30:50.141Z,27.24
2022-08-14T01:31:52.456Z,27.18
2022-08-14T01:32:43.238Z,27.19
2022-08-14T01:33:52.196Z,27.14
2022-08-14T01:35:18.699Z,27.12
2022-08-14T01:36:07.454Z,27.20
2022-08-14T01:37:11.482Z,27.17
2022-08-14T01:38:02.015Z,27.03
2022-08-14T01:38:59.365Z,27.12
2022-08-14T01:39:51.510Z,27.09
2022-08-14T01:40:47.337Z,27.11
2022-08-14T01:41:39.683Z,27.06
2022-08-14T01:42:44.359Z,27.12
2022-08-14T01:43:56.656Z,27.09
2022-08-14T01:44:54.366Z,27.13
2022-08-14T01:45:49.101Z,27.13
2022-08-14T01:47:01.305Z,26.84
2022-08-14T01:47:51.990Z,26.77
2022-08-14T01:48:54.357Z,26.71
2022-08-14T01:49:59.082Z,26.88
2022-08-14T01:50:50.701Z,26.99
2022-08-14T01:51:43.734Z,26.87
2022-08-14T01:52:58.718Z,27.02
2022-08-14T01:53:48.075Z,27.05
2022-08-14T01:54:45.727Z,26.92
2022-08-14T01:55:51.693Z,26.95
2022-08-14T01:56:43.006Z,26.93
2022-08-14T01:58:01.677Z,26.83
2022-08-14T01:58:57.609Z,26.97
2022-08-14T01:59:50.361Z,26.93
2022-08-14T02:00:41.427Z,27.01
2022-08-14T02:01:32.558Z,27.02
2022-08-14T02:02:26.650Z,27.03
2022-08-14T02:03:16.948Z,27.03
2022-08-14T02:04:40.601Z,26.95
2022-08-14T02:05:18.006Z,26.96
2022-08-14T02:06:33.268Z,26.93
2022-08-14T02:07:34.318Z,26.97
2022-08-14T02:08:35.426Z,26.99
2022-08-14T02:09:27.999Z,26.96
2022-08-14T02:10:26.303Z,27.01
2022-08-14T02:11:18.939Z,26.99
2022-08-14T02:12:10.765Z,27.02
2022-08-14T02:13:11.143Z,27.03
2022-08-14T02:14:14.123Z,27.01
2022-08-14T02:15:05.740Z,27.00
2022-08-14T02:16:00.368Z,27.02
2022-08-14T02:17:13.463Z,26.99
2022-08-14T02:18:04.748Z,26.99
2022-08-14T02:18:56.538Z,26.96
2022-08-14T02:19:48.726Z,26.95
2022-08-14T02:20:42.748Z,26.86
2022-08-14T02:21:43.779Z,26.72
2022-08-14T02:22:47.389Z,26.82
2022-08-14T02:23:39.784Z,26.76
2022-08-14T02:24:39.724Z,26.84
2022-08-14T02:25:32.347Z,26.88
2022-08-14T02:26:29.149Z,26.88
2022-08-14T02:28:25.585Z,26.81
2022-08-14T02:28:57.343Z,26.78
2022-08-14T02:29:59.969Z,26.79
2022-08-14T02:30:54.135Z,26.83
2022-08-14T02:32:06.210Z,26.82
2022-08-14T02:33:16.457Z,26.81
2022-08-14T02:34:19.947Z,26.83
2022-08-14T02:35:21.985Z,26.84
2022-08-14T02:37:02.652Z,26.83
2022-08-14T02:37:23.344Z,26.79
2022-08-14T02:38:35.336Z,26.76
2022-08-14T02:39:26.463Z,26.76
2022-08-14T02:40:19.048Z,26.75
2022-08-14T02:41:11.120Z,26.78
2022-08-14T02:42:04.281Z,26.81
2022-08-14T02:42:57.732Z,26.82
2022-08-14T02:43:48.751Z,26.80
2022-08-14T02:44:40.845Z,26.69
2022-08-14T02:45:53.511Z,26.74
2022-08-14T02:47:03.652Z,26.74
2022-08-14T02:49:02.063Z,26.70
2022-08-14T02:49:33.096Z,26.70
2022-08-14T02:50:42.821Z,26.76
2022-08-14T02:51:54.219Z,26.77
2022-08-14T02:53:05.204Z,26.81
2022-08-14T02:54:19.697Z,26.81
2022-08-14T02:55:26.261Z,26.82
2022-08-14T02:57:13.588Z,26.78
2022-08-14T02:58:02.940Z,26.73
2022-08-14T02:59:02.031Z,26.73
2022-08-14T03:00:18.670Z,26.72
2022-08-14T03:01:26.249Z,26.58
2022-08-14T03:02:56.153Z,26.63
2022-08-14T03:03:46.703Z,26.52
2022-08-14T03:04:37.807Z,26.49
2022-08-14T03:05:35.783Z,26.35
2022-08-14T03:06:34.891Z,26.29
2022-08-14T03:07:38.520Z,26.23
2022-08-14T03:08:33.765Z,26.27
2022-08-14T03:09:24.634Z,26.38
2022-08-14T03:10:26.629Z,26.22
2022-08-14T03:12:17.929Z,26.26
2022-08-14T03:13:22.077Z,26.39
2022-08-14T03:14:15.455Z,26.48
2022-08-14T03:15:16.149Z,26.49
2022-08-14T03:16:26.532Z,26.55
2022-08-14T03:17:18.057Z,26.49
2022-08-14T03:18:12.594Z,26.52
2022-08-14T03:19:09.196Z,26.54
2022-08-14T03:20:04.879Z,26.53
2022-08-14T03:20:56.471Z,26.61
2022-08-14T03:21:46.901Z,26.59
2022-08-14T03:22:44.168Z,26.63
2022-08-14T03:23:41.260Z,26.65
2022-08-14T03:24:33.365Z,26.56
2022-08-14T03:25:24.322Z,26.60
2022-08-14T03:26:29.641Z,26.55
2022-08-14T03:27:20.603Z,26.50
2022-08-14T03:28:33.289Z,26.50
2022-08-14T03:29:26.166Z,26.50
2022-08-14T03:30:23.443Z,26.46
2022-08-14T03:31:15.424Z,26.41
2022-08-14T03:32:06.560Z,26.26
2022-08-14T03:32:58.920Z,26.28
2022-08-14T03:33:51.622Z,26.38
2022-08-14T03:34:48.299Z,26.33
2022-08-14T03:36:05.610Z,26.35
2022-08-14T03:37:50.882Z,26.41
2022-08-14T03:39:13.884Z,26.42
2022-08-14T03:39:22.871Z,26.48
2022-08-14T03:40:18.355Z,26.48
2022-08-14T03:41:16.556Z,26.46
2022-08-14T03:42:19.151Z,26.45
2022-08-14T03:43:10.800Z,26.52
2022-08-14T03:45:18.799Z,26.49
2022-08-14T03:45:25.102Z,26.44
2022-08-14T03:46:39.143Z,26.46
2022-08-14T03:47:46.551Z,26.42
2022-08-14T03:48:49.507Z,26.42
2022-08-14T03:49:50.153Z,26.40
2022-08-14T03:50:44.508Z,26.33
2022-08-14T03:51:38.552Z,26.28
2022-08-14T03:52:40.856Z,26.29
2022-08-14T03:53:38.651Z,26.23
2022-08-14T03:54:29.461Z,26.19
2022-08-14T03:55:24.158Z,26.33
2022-08-14T03:56:18.021Z,26.24
2022-08-14T03:57:12.252Z,26.22
2022-08-14T03:58:02.678Z,26.20
2022-08-14T03:58:58.538Z,26.33
2022-08-14T03:59:49.352Z,26.19
2022-08-14T04:00:44.576Z,26.14
2022-08-14T04:01:41.506Z,26.10
2022-08-14T04:02:37.367Z,26.18
2022-08-14T04:03:28.152Z,26.18
2022-08-14T04:04:19.619Z,26.11
2022-08-14T04:05:12.616Z,26.24
2022-08-14T04:06:03.899Z,26.34
2022-08-14T04:06:58.813Z,26.39
2022-08-14T04:08:00.469Z,26.39
2022-08-14T04:08:59.452Z,26.37
2022-08-14T04:09:49.809Z,26.31
2022-08-14T04:10:43.005Z,26.28
2022-08-14T04:11:38.423Z,26.29
2022-08-14T04:12:28.695Z,26.31
2022-08-14T04:13:20.430Z,26.35
2022-08-14T04:14:15.776Z,26.01
2022-08-14T04:15:07.928Z,25.68
2022-08-14T04:16:02.439Z,25.77
2022-08-14T04:16:55.978Z,25.74
2022-08-14T04:17:46.574Z,25.79
2022-08-14T04:18:42.293Z,25.90
2022-08-14T04:19:36.513Z,26.09
2022-08-14T04:20:27.265Z,26.16
2022-08-14T04:21:18.129Z,26.19
2022-08-14T04:22:08.839Z,26.14
2022-08-14T04:23:07.101Z,25.95
2022-08-14T04:24:09.503Z,25.84
2022-08-14T04:25:04.974Z,25.83
2022-08-14T04:25:55.896Z,25.74
2022-08-14T04:26:47.309Z,25.88
2022-08-14T04:27:48.568Z,25.97
2022-08-14T04:29:09.146Z,25.96
2022-08-14T04:30:00.615Z,26.01
2022-08-14T04:30:56.175Z,25.80
2022-08-14T04:33:00.795Z,25.72
2022-08-14T04:33:07.362Z,25.65
2022-08-14T04:34:05.492Z,25.90
2022-08-14T04:34:58.799Z,25.93
2022-08-14T04:35:56.063Z,25.96
2022-08-14T04:37:07.216Z,25.84
2022-08-14T04:38:36.837Z,25.87
2022-08-14T04:39:46.498Z,25.75
2022-08-14T04:40:56.303Z,25.66
2022-08-14T04:42:11.813Z,25.67
2022-08-14T04:43:23.828Z,25.75
2022-08-14T04:44:26.551Z,25.65
2022-08-14T04:45:25.850Z,25.72
2022-08-14T04:46:55.817Z,25.68
2022-08-14T04:47:53.639Z,25.74
2022-08-14T04:48:51.329Z,25.75
2022-08-14T04:49:57.353Z,25.67
2022-08-14T04:50:53.943Z,25.74
2022-08-14T04:51:46.815Z,25.74
2022-08-14T04:52:53.968Z,25.73
2022-08-14T04:53:48.306Z,25.70
2022-08-14T04:54:39.062Z,25.77
2022-08-14T04:55:29.947Z,25.71
2022-08-14T04:56:31.645Z,25.66
2022-08-14T04:57:25.536Z,25.55
2022-08-14T04:58:21.834Z,25.59
2022-08-14T04:59:28.168Z,25.49
2022-08-14T05:00:20.239Z,25.43
2022-08-14T05:01:19.527Z,25.46
2022-08-14T05:02:10.576Z,25.39
2022-08-14T05:03:03.555Z,25.31
2022-08-14T05:03:58.127Z,25.30
2022-08-14T05:04:57.307Z,25.39
2022-08-14T05:05:51.980Z,25.31
2022-08-14T05:06:45.211Z,25.22
2022-08-14T05:07:54.097Z,25.20
2022-08-14T05:08:57.137Z,25.20
2022-08-14T05:09:50.589Z,25.20
2022-08-14T05:10:44.942Z,25.19
2022-08-14T05:11:36.494Z,25.12
2022-08-14T05:13:24.369Z,25.18
2022-08-14T05:14:16.162Z,25.19
2022-08-14T05:14:54.886Z,25.33
2022-08-14T05:15:46.499Z,25.24
2022-08-14T05:16:39.749Z,25.21
2022-08-14T05:17:44.202Z,25.20
2022-08-14T05:19:17.714Z,25.19
2022-08-14T05:21:55.937Z,25.20
2022-08-14T05:21:56.100Z,25.35
2022-08-14T05:22:19.183Z,25.36
2022-08-14T05:23:11.505Z,25.43
2022-08-14T05:24:04.482Z,25.41
2022-08-14T05:24:56.554Z,25.32
2022-08-14T05:25:51.406Z,25.25
2022-08-14T05:26:44.640Z,25.30
2022-08-14T05:27:38.267Z,25.30
2022-08-14T05:28:32.219Z,25.27
2022-08-14T05:29:23.824Z,25.35
2022-08-14T05:30:16.613Z,25.39
2022-08-14T05:31:07.385Z,25.32
2022-08-14T05:31:58.763Z,25.30
2022-08-14T05:32:49.556Z,25.35
2022-08-14T05:33:40.608Z,25.27
2022-08-14T05:34:32.235Z,25.32
2022-08-14T05:35:25.340Z,25.38
2022-08-14T05:36:16.951Z,25.38
2022-08-14T05:37:08.051Z,25.36
2022-08-14T05:38:01.340Z,25.44
2022-08-14T05:39:01.860Z,25.41
2022-08-14T05:39:54.325Z,25.44
2022-08-14T05:40:45.149Z,25.45
2022-08-14T05:41:52.872Z,25.46
2022-08-14T05:42:46.709Z,25.56
2022-08-14T05:43:47.724Z,25.50
2022-08-14T05:44:40.467Z,25.54
2022-08-14T05:45:37.395Z,25.54
2022-08-14T05:46:28.406Z,25.54
2022-08-14T05:47:20.997Z,25.63
2022-08-14T05:48:14.515Z,25.62
2022-08-14T05:49:33.366Z,25.60
2022-08-14T05:50:24.466Z,25.65
2022-08-14T05:51:20.934Z,25.63
2022-08-14T05:52:11.519Z,25.64
2022-08-14T05:53:09.017Z,25.66
2022-08-14T05:54:13.705Z,25.68
2022-08-14T05:55:11.482Z,25.69
2022-08-14T05:56:02.013Z,25.66
2022-08-14T05:57:12.946Z,25.65
2022-08-14T05:58:40.766Z,25.64
2022-08-14T05:59:39.170Z,25.69
2022-08-14T06:00:46.406Z,25.73
2022-08-14T06:01:57.376Z,25.73
2022-08-14T06:03:09.689Z,25.66
2022-08-14T06:04:32.777Z,25.70
2022-08-14T06:05:47.787Z,25.76
2022-08-14T06:07:04.928Z,25.77
2022-08-14T06:07:54.362Z,25.70
2022-08-14T06:08:47.968Z,25.78
2022-08-14T06:09:40.416Z,25.80
2022-08-14T06:10:31.641Z,25.82
2022-08-14T06:11:31.192Z,25.84
2022-08-14T06:12:55.805Z,25.84
2022-08-14T06:13:41.159Z,25.84
2022-08-14T06:14:36.923Z,25.86
2022-08-14T06:15:30.355Z,25.86
2022-08-14T06:16:21.573Z,25.86
2022-08-14T06:17:25.997Z,25.89
2022-08-14T06:18:17.663Z,25.89
2022-08-14T06:19:11.483Z,25.88
2022-08-14T06:20:10.249Z,25.90
2022-08-14T06:21:01.546Z,25.91
2022-08-14T06:21:58.988Z,25.92
2022-08-14T06:22:50.587Z,25.95
2022-08-14T06:23:42.334Z,25.95
2022-08-14T06:24:34.740Z,25.97
2022-08-14T06:25:26.133Z,25.99
2022-08-14T06:26:20.910Z,25.98
2022-08-14T06:27:12.005Z,26.02
2022-08-14T06:28:04.093Z,25.99
2022-08-14T06:28:54.896Z,26.00
2022-08-14T06:29:46.535Z,26.01
2022-08-14T06:30:45.640Z,26.03
2022-08-14T06:31:37.865Z,26.02
2022-08-14T06:32:36.478Z,26.04
2022-08-14T06:35:03.104Z,26.04
2022-08-14T06:35:11.479Z,26.03
2022-08-14T06:36:02.295Z,26.04
2022-08-14T06:36:56.616Z,26.06
2022-08-14T06:37:58.794Z,26.07
2022-08-14T06:38:50.974Z,26.08
2022-08-14T06:39:42.348Z,26.12
2022-08-14T06:40:36.513Z,26.09
2022-08-14T06:41:57.102Z,26.14
2022-08-14T06:42:41.614Z,26.14
2022-08-14T06:43:32.627Z,26.12
2022-08-14T06:44:30.608Z,26.16
2022-08-14T06:45:26.062Z,26.13
2022-08-14T06:46:23.164Z,26.09
2022-08-14T06:47:24.015Z,26.12
2022-08-14T06:48:23.978Z,26.16
2022-08-14T06:49:14.504Z,26.17
2022-08-14T06:50:05.973Z,26.18
2022-08-14T06:50:58.972Z,26.19
2022-08-14T06:51:50.007Z,26.17
2022-08-14T06:52:50.358Z,26.20
2022-08-14T06:53:42.814Z,26.21
2022-08-14T06:54:33.797Z,26.21
2022-08-14T06:55:27.639Z,26.24
2022-08-14T06:56:18.316Z,26.23
2022-08-14T06:57:12.038Z,26.22
2022-08-14T06:58:03.760Z,26.25
2022-08-14T06:58:54.573Z,26.27
2022-08-14T06:59:46.255Z,26.27
2022-08-14T07:00:36.887Z,26.31
2022-08-14T07:01:48.186Z,26.28
2022-08-14T07:02:59.310Z,26.33
2022-08-14T07:04:22.716Z,26.33
2022-08-14T07:05:35.004Z,26.31
2022-08-14T07:06:46.332Z,26.35
2022-08-14T07:07:39.797Z,26.35
2022-08-14T07:08:31.550Z,26.37
2022-08-14T07:09:23.423Z,26.41
2022-08-14T07:10:17.245Z,26.42
2022-08-14T07:11:08.385Z,26.39
2022-08-14T07:12:00.746Z,26.40
2022-08-14T07:13:01.275Z,26.43
2022-08-14T07:13:54.010Z,26.44
2022-08-14T07:14:45.784Z,26.48
2022-08-14T07:15:39.977Z,26.48
2022-08-14T07:16:33.380Z,26.49
2022-08-14T07:17:23.932Z,26.51
2022-08-14T07:18:15.440Z,26.51
2022-08-14T07:19:08.390Z,26.52
2022-08-14T07:20:00.827Z,26.53
2022-08-14T07:20:56.370Z,26.54
2022-08-14T07:21:47.041Z,26.55
2022-08-14T07:22:55.928Z,26.56
2022-08-14T07:23:47.607Z,26.57
2022-08-14T07:25:04.971Z,26.60
2022-08-14T07:25:56.704Z,26.63
2022-08-14T07:26:48.950Z,26.62
2022-08-14T07:27:40.926Z,26.64
2022-08-14T07:28:35.948Z,26.66
2022-08-14T07:29:34.033Z,26.67
2022-08-14T07:30:34.300Z,26.66
2022-08-14T07:31:25.920Z,26.67
2022-08-14T07:32:22.177Z,26.70
2022-08-14T07:33:29.054Z,26.71
2022-08-14T07:34:26.322Z,26.70
2022-08-14T07:35:37.353Z,26.74
2022-08-14T07:36:38.737Z,26.74
2022-08-14T07:37:49.706Z,26.73
2022-08-14T07:38:43.538Z,26.75
2022-08-14T07:39:43.946Z,26.77
2022-08-14T07:40:34.639Z,26.78
2022-08-14T07:41:34.056Z,26.80
2022-08-14T07:42:26.825Z,26.81
2022-08-14T07:43:18.024Z,26.78
2022-08-14T07:44:29.326Z,26.83
2022-08-14T07:45:22.530Z,26.85
2022-08-14T07:46:14.408Z,26.84
2022-08-14T07:48:14.820Z,26.86
2022-08-14T07:49:07.981Z,26.91
2022-08-14T07:50:16.464Z,26.89
2022-08-14T07:51:10.794Z,26.91
2022-08-14T07:52:03.256Z,26.93
2022-08-14T07:52:55.069Z,26.95
2022-08-14T07:53:46.752Z,26.97
2022-08-14T07:54:38.126Z,26.98
2022-08-14T07:55:29.827Z,26.99
2022-08-14T07:56:47.627Z,27.00
2022-08-14T07:57:32.117Z,27.00
2022-08-14T07:58:34.339Z,27.02
2022-08-14T07:59:42.291Z,27.04
2022-08-14T08:00:35.479Z,27.04
2022-08-14T08:01:29.908Z,27.07
2022-08-14T08:02:44.726Z,27.03
2022-08-14T08:03:59.421Z,27.07
2022-08-14T08:04:58.960Z,27.11
2022-08-14T08:05:50.379Z,27.10
2022-08-14T08:06:44.156Z,27.11
2022-08-14T08:07:34.729Z,27.14
2022-08-14T08:08:32.775Z,27.13
2022-08-14T08:09:31.778Z,27.16
2022-08-14T08:11:01.492Z,27.18
2022-08-14T08:11:42.881Z,27.21
2022-08-14T08:12:43.548Z,27.23
2022-08-14T08:13:34.917Z,27.26
2022-08-14T08:14:31.250Z,27.24
2022-08-14T08:15:27.353Z,27.26
2022-08-14T08:16:23.986Z,27.26
2022-08-14T08:17:24.993Z,27.29
2022-08-14T08:18:20.493Z,27.32
2022-08-14T08:19:19.364Z,27.31
2022-08-14T08:20:15.783Z,27.31
2022-08-14T08:21:08.578Z,27.30
2022-08-14T08:22:03.361Z,27.36
2022-08-14T08:23:00.368Z,27.38
2022-08-14T08:23:51.665Z,27.41
2022-08-14T08:24:43.342Z,27.40
2022-08-14T08:25:40.167Z,27.41
2022-08-14T08:26:33.229Z,27.43
2022-08-14T08:27:25.050Z,27.42
2022-08-14T08:28:25.553Z,27.45
2022-08-14T08:29:28.654Z,27.46
2022-08-14T08:30:19.717Z,27.50
2022-08-14T08:31:12.819Z,27.50
2022-08-14T08:32:05.922Z,27.53
2022-08-14T08:32:59.090Z,27.53
2022-08-14T08:33:53.088Z,27.53
2022-08-14T08:34:49.709Z,27.56
2022-08-14T08:35:47.026Z,27.56
2022-08-14T08:36:42.147Z,27.58
2022-08-14T08:37:40.298Z,27.59
2022-08-14T08:39:17.567Z,27.61
2022-08-14T08:40:03.248Z,27.64
2022-08-14T08:41:00.043Z,27.64
2022-08-14T08:41:53.778Z,27.70
2022-08-14T08:42:45.060Z,27.68
2022-08-14T08:43:36.759Z,27.72
2022-08-14T08:44:35.392Z,27.72
2022-08-14T08:45:27.820Z,27.71
2022-08-14T08:46:23.902Z,27.72
2022-08-14T08:47:15.928Z,27.77
2022-08-14T08:48:17.921Z,27.79
2022-08-14T08:49:10.720Z,27.76
2022-08-14T08:50:02.006Z,27.81
2022-08-14T08:51:30.560Z,27.80
2022-08-14T08:52:25.245Z,27.82
2022-08-14T08:53:22.505Z,27.87
2022-08-14T08:54:18.447Z,27.88
2022-08-14T08:55:10.702Z,27.88
2022-08-14T08:56:03.750Z,27.88
2022-08-14T08:56:57.611Z,27.94
2022-08-14T08:57:48.754Z,27.99
2022-08-14T08:58:39.218Z,27.97
2022-08-14T08:59:34.251Z,27.97
2022-08-14T09:00:26.430Z,28.02
2022-08-14T09:01:18.899Z,27.99
2022-08-14T09:02:11.012Z,28.02
2022-08-14T09:03:12.000Z,28.07
2022-08-14T09:04:04.388Z,28.05
2022-08-14T09:05:09.394Z,28.09
2022-08-14T09:06:03.924Z,28.05
2022-08-14T09:07:10.317Z,28.02
2022-08-14T09:08:30.203Z,28.04
2022-08-14T09:09:25.532Z,28.10
2022-08-14T09:10:23.421Z,28.11
2022-08-14T09:11:18.981Z,28.17
2022-08-14T09:12:13.818Z,28.16
2022-08-14T09:13:05.393Z,28.16
2022-08-14T09:13:57.916Z,28.15
2022-08-14T09:14:49.097Z,28.14
2022-08-14T09:15:45.312Z,28.21
2022-08-14T09:16:36.850Z,28.18
2022-08-14T09:17:27.373Z,28.16
2022-08-14T09:18:19.593Z,28.19
2022-08-14T09:19:12.794Z,28.24
2022-08-14T09:20:04.589Z,28.25
2022-08-14T09:20:58.777Z,28.27
2022-08-14T09:21:49.606Z,28.30
2022-08-14T09:22:48.744Z,28.34
2022-08-14T09:24:26.453Z,28.35
2022-08-14T09:24:51.947Z,28.36
2022-08-14T09:26:00.864Z,28.40
2022-08-14T09:26:53.051Z,28.43
2022-08-14T09:27:44.006Z,28.46
2022-08-14T09:28:35.538Z,28.42
2022-08-14T09:29:28.738Z,28.44
2022-08-14T09:30:32.048Z,28.48
2022-08-14T09:31:42.522Z,28.50
2022-08-14T09:34:34.734Z,28.52
2022-08-14T09:35:56.562Z,28.56
2022-08-14T09:36:56.828Z,28.62
2022-08-14T09:38:19.620Z,28.63
2022-08-14T09:39:45.874Z,28.64
2022-08-14T09:40:47.736Z,28.67
2022-08-14T09:42:21.297Z,28.67
2022-08-14T09:43:30.563Z,28.70
2022-08-14T09:44:45.736Z,28.75
2022-08-14T09:45:52.976Z,28.81
2022-08-14T09:46:57.973Z,28.81
2022-08-14T09:47:52.505Z,28.80
2022-08-14T09:48:43.280Z,28.83
2022-08-14T09:49:40.687Z,28.84
2022-08-14T09:50:36.734Z,28.84
2022-08-14T09:51:32.634Z,28.81
2022-08-14T09:52:34.036Z,28.80
2022-08-14T09:54:12.891Z,28.79
2022-08-14T09:54:48.141Z,28.80
2022-08-14T09:55:42.348Z,28.82
2022-08-14T09:56:56.594Z,28.86
2022-08-14T09:57:48.670Z,28.91
2022-08-14T09:58:40.551Z,28.90
2022-08-14T09:59:50.494Z,28.89
2022-08-14T10:00:57.554Z,29.00
2022-08-14T10:01:52.957Z,29.04
2022-08-14T10:02:56.640Z,29.00
2022-08-14T10:03:49.011Z,29.04
2022-08-14T10:04:46.160Z,29.02
2022-08-14T10:05:41.161Z,29.03
2022-08-14T10:06:33.020Z,29.07
2022-08-14T10:07:31.756Z,29.10
2022-08-14T10:08:26.329Z,29.12
2022-08-14T10:09:35.302Z,29.13
2022-08-14T10:10:43.968Z,29.14
2022-08-14T10:11:59.055Z,29.22
2022-08-14T10:12:53.186Z,29.20
2022-08-14T10:13:53.424Z,29.23
2022-08-14T10:14:44.368Z,29.26
2022-08-14T10:15:46.098Z,29.26
2022-08-14T10:16:42.323Z,29.26
2022-08-14T10:17:38.985Z,29.24
2022-08-14T10:18:31.550Z,29.26
2022-08-14T10:19:28.093Z,29.29
2022-08-14T10:20:40.177Z,29.26
2022-08-14T10:21:38.694Z,29.27
2022-08-14T10:23:12.652Z,29.31
2022-08-14T10:23:52.507Z,29.37
2022-08-14T10:24:46.379Z,29.40
2022-08-14T10:25:47.502Z,29.39
2022-08-14T10:26:40.223Z,29.41
2022-08-14T10:27:32.209Z,29.44
2022-08-14T10:28:39.022Z,29.46
2022-08-14T10:29:40.880Z,29.46
2022-08-14T10:30:35.569Z,29.44
2022-08-14T10:31:29.669Z,29.47
2022-08-14T10:32:39.929Z,29.49
2022-08-14T10:33:33.324Z,29.51
2022-08-14T10:34:36.649Z,29.52
2022-08-14T10:35:30.956Z,29.54
2022-08-14T10:36:37.137Z,29.56
2022-08-14T10:37:41.731Z,29.51
2022-08-14T10:38:36.147Z,29.50
2022-08-14T10:39:26.511Z,29.54
2022-08-14T10:40:43.301Z,29.55
2022-08-14T10:41:48.432Z,29.62
2022-08-14T10:42:47.032Z,29.62
2022-08-14T10:43:37.364Z,29.63
2022-08-14T10:44:35.408Z,29.62
2022-08-14T10:45:35.820Z,29.64
2022-08-14T10:47:36.467Z,29.64
2022-08-14T10:48:08.081Z,29.61
2022-08-14T10:49:04.397Z,29.62
2022-08-14T10:49:58.642Z,29.64
2022-08-14T10:50:51.735Z,29.64
2022-08-14T10:51:42.384Z,29.69
2022-08-14T10:52:38.292Z,29.65
2022-08-14T10:53:33.584Z,29.67
2022-08-14T10:54:39.939Z,29.71
2022-08-14T10:55:39.484Z,29.68
2022-08-14T10:56:36.756Z,29.71
2022-08-14T10:57:27.795Z,29.68
2022-08-14T10:58:27.814Z,29.72
2022-08-14T10:59:34.954Z,29.70
2022-08-14T11:00:30.228Z,29.69
2022-08-14T11:01:31.550Z,29.71
2022-08-14T11:02:36.140Z,29.69
2022-08-14T11:03:55.496Z,29.71
2022-08-14T11:05:01.009Z,29.70
2022-08-14T11:05:56.221Z,29.76
2022-08-14T11:06:56.302Z,29.73
2022-08-14T11:07:56.445Z,29.73
2022-08-14T11:08:48.316Z,29.73
2022-08-14T11:09:56.312Z,29.72
2022-08-14T11:11:06.001Z,29.72
2022-08-14T11:12:40.125Z,29.70
2022-08-14T11:13:08.922Z,29.72
2022-08-14T11:13:59.677Z,29.73
2022-08-14T11:14:59.192Z,29.70
2022-08-14T11:15:50.777Z,29.73
2022-08-14T11:16:53.432Z,29.79
2022-08-14T11:17:47.249Z,29.85
2022-08-14T11:18:44.174Z,29.87
2022-08-14T11:19:36.367Z,29.83
2022-08-14T11:20:27.954Z,29.81
2022-08-14T11:21:23.279Z,29.77
2022-08-14T11:22:15.567Z,29.80
2022-08-14T11:23:37.893Z,29.75
2022-08-14T11:24:55.159Z,29.80
2022-08-14T11:25:53.370Z,29.79
2022-08-14T11:26:45.592Z,29.80
2022-08-14T11:27:39.105Z,29.85
2022-08-14T11:28:48.037Z,29.82
2022-08-14T11:29:40.374Z,29.86
2022-08-14T11:30:50.242Z,29.80
2022-08-14T11:31:41.730Z,29.82
2022-08-14T11:32:32.165Z,29.80
2022-08-14T11:33:25.091Z,29.81
2022-08-14T11:34:32.468Z,29.82
2022-08-14T11:35:27.254Z,29.83
2022-08-14T11:37:02.188Z,29.86
2022-08-14T11:37:59.595Z,29.83
2022-08-14T11:38:50.662Z,29.83
2022-08-14T11:39:45.517Z,29.95
2022-08-14T11:40:37.787Z,29.96
2022-08-14T11:41:29.704Z,29.96
2022-08-14T11:42:57.577Z,30.07
2022-08-14T11:43:49.471Z,30.10
2022-08-14T11:44:49.713Z,30.07
2022-08-14T11:45:48.904Z,30.02
2022-08-14T11:46:41.235Z,30.03
2022-08-14T11:47:35.161Z,30.01
2022-08-14T11:49:03.993Z,30.04
2022-08-14T11:49:44.625Z,30.04
2022-08-14T11:50:38.203Z,30.07
2022-08-14T11:51:30.470Z,30.05
2022-08-14T11:52:21.713Z,30.07
2022-08-14T11:53:31.261Z,30.04
2022-08-14T11:54:34.431Z,30.02
2022-08-14T11:55:28.766Z,29.98
2022-08-14T11:56:25.220Z,30.02
2022-08-14T11:57:18.762Z,30.04
2022-08-14T11:58:23.866Z,30.07
2022-08-14T11:59:18.095Z,30.04
2022-08-14T12:00:10.677Z,29.98
2022-08-14T12:01:07.484Z,29.94
2022-08-14T12:02:39.164Z,29.95
2022-08-14T12:03:59.218Z,30.00
2022-08-14T12:04:52.638Z,29.97
2022-08-14T12:05:43.783Z,29.99
2022-08-14T12:06:55.810Z,29.95
2022-08-14T12:07:50.640Z,29.93
2022-08-14T12:09:02.764Z,30.02
2022-08-14T12:10:26.299Z,30.06
2022-08-14T12:11:23.685Z,30.08
2022-08-14T12:12:35.845Z,30.10
2022-08-14T12:13:28.216Z,30.07
2022-08-14T12:14:30.690Z,30.05
2022-08-14T12:15:34.163Z,30.08
2022-08-14T12:16:26.842Z,30.10
2022-08-14T12:17:23.933Z,30.07
2022-08-14T12:18:19.587Z,30.08
2022-08-14T12:19:10.074Z,30.05
2022-08-14T12:20:05.949Z,30.10
2022-08-14T12:20:59.921Z,30.08
2022-08-14T12:21:51.783Z,30.09
2022-08-14T12:22:45.887Z,30.06
2022-08-14T12:23:44.314Z,30.08
2022-08-14T12:24:39.943Z,30.07
2022-08-14T12:25:30.911Z,30.06
2022-08-14T12:26:25.021Z,30.10
2022-08-14T12:27:53.552Z,30.12
2022-08-14T12:28:59.285Z,30.14
2022-08-14T12:29:54.067Z,30.10
2022-08-14T12:30:45.404Z,30.10
2022-08-14T12:31:44.924Z,30.09
2022-08-14T12:32:44.683Z,30.13
2022-08-14T12:33:35.554Z,30.12
2022-08-14T12:34:31.608Z,30.13
2022-08-14T12:35:23.864Z,30.12
2022-08-14T12:36:23.738Z,30.13
2022-08-14T12:37:16.328Z,30.11
2022-08-14T12:38:19.382Z,30.12
2022-08-14T12:39:23.795Z,30.14
2022-08-14T12:40:19.591Z,30.17
2022-08-14T12:41:20.692Z,30.24
2022-08-14T12:42:53.872Z,30.21
2022-08-14T12:44:02.136Z,30.17